Terminal Aerodrome Forecast
Issued by NWS

Home | Current Version | Previous Version | Text Only | Print | Product List | Glossary Off
Versions: 1 2 3 4 5 6 7 8 9 10 11 12 13 14 15 16

286
FTUS43 KABR 060538
TAFMBG
TAF
KMBG 060538Z 0606/0706 16007KT P6SM SCT250
     FM061800 24011KT P6SM BKN150
     FM062100 27012KT P6SM BKN120
     FM070000 29025G35KT P6SM BKN080 OVC120
      TEMPO 0700/0701 30030G40KT=

USA.gov is the U.S. government's official web portal to all federal, state and local government web resources and services.